createdAt,value
2023-04-05T00:00:54.760Z,14.49
2023-04-05T00:03:24.413Z,14.44
2023-04-05T00:05:55.032Z,14.41
2023-04-05T00:08:27.174Z,14.38
2023-04-05T00:10:56.177Z,14.36
2023-04-05T00:13:24.435Z,14.33
2023-04-05T00:15:52.817Z,14.31
2023-04-05T00:18:24.524Z,14.29
2023-04-05T00:20:53.065Z,14.28
2023-04-05T00:23:22.940Z,14.28
2023-04-05T00:25:51.445Z,14.28
2023-04-05T00:28:20.164Z,14.29
2023-04-05T00:30:48.714Z,14.27
2023-04-05T00:33:18.425Z,14.26
2023-04-05T00:35:47.250Z,14.22
2023-04-05T00:38:15.909Z,14.11
2023-04-05T00:40:44.582Z,14.08
2023-04-05T00:43:15.789Z,14.07
2023-04-05T00:45:45.140Z,14.07
2023-04-05T00:48:16.379Z,14.06
2023-04-05T00:50:44.752Z,14.06
2023-04-05T00:53:15.995Z,14.06
2023-04-05T00:55:44.581Z,14.04
2023-04-05T00:58:13.773Z,14.04
2023-04-05T01:00:42.301Z,14.03
2023-04-05T01:03:14.133Z,14.01
2023-04-05T01:06:03.378Z,14.01
2023-04-05T01:08:39.245Z,13.99
2023-04-05T01:11:07.612Z,13.98
2023-04-05T01:13:37.934Z,13.97
2023-04-05T01:16:06.664Z,13.99
2023-04-05T01:18:36.746Z,14.01
2023-04-05T01:21:07.889Z,14.01
2023-04-05T01:23:37.857Z,14.01
2023-04-05T01:26:18.463Z,14.01
2023-04-05T01:28:52.789Z,14.00
2023-04-05T01:31:40.248Z,13.98
2023-04-05T01:34:20.256Z,13.97
2023-04-05T01:36:55.400Z,13.97
2023-04-05T01:39:24.081Z,13.95
2023-04-05T01:41:52.254Z,13.94
2023-04-05T01:44:20.604Z,14.00
2023-04-05T01:46:49.035Z,14.05
2023-04-05T01:49:19.657Z,13.97
2023-04-05T01:51:47.917Z,13.93
2023-04-05T01:54:16.192Z,13.93
2023-04-05T01:56:45.162Z,13.99
2023-04-05T01:59:13.410Z,14.05
2023-04-05T02:01:42.371Z,14.08
2023-04-05T02:04:11.649Z,14.10
2023-04-05T02:06:41.172Z,14.12
2023-04-05T02:09:11.170Z,14.13
2023-04-05T02:11:39.557Z,14.16
2023-04-05T02:14:07.934Z,14.17
2023-04-05T02:16:36.517Z,14.18
2023-04-05T02:19:06.077Z,14.18
2023-04-05T02:21:41.141Z,14.19
2023-04-05T02:24:09.325Z,14.19
2023-04-05T02:26:37.705Z,14.18
2023-04-05T02:29:07.720Z,14.16
2023-04-05T02:31:36.335Z,14.13
2023-04-05T02:34:06.144Z,14.12
2023-04-05T02:36:34.705Z,13.99
2023-04-05T02:39:04.937Z,13.97
2023-04-05T02:41:36.373Z,14.01
2023-04-05T02:44:05.055Z,14.04
2023-04-05T02:46:33.444Z,14.09
2023-04-05T02:49:02.224Z,14.15
2023-04-05T02:51:34.711Z,14.21
2023-04-05T02:54:05.335Z,14.26
2023-04-05T02:56:34.522Z,14.28
2023-04-05T02:59:04.382Z,14.27
2023-04-05T03:01:33.451Z,14.26
2023-04-05T03:04:04.199Z,14.24
2023-04-05T03:06:32.761Z,14.24
2023-04-05T03:09:05.013Z,14.26
2023-04-05T03:11:34.128Z,14.28
2023-04-05T03:14:05.865Z,14.27
2023-04-05T03:16:50.893Z,14.24
2023-04-05T03:19:29.171Z,14.21
2023-04-05T03:22:02.745Z,14.18
2023-04-05T03:24:35.327Z,14.15
2023-04-05T03:27:07.512Z,14.13
2023-04-05T03:29:43.815Z,14.10
2023-04-05T03:32:16.957Z,14.07
2023-04-05T03:34:51.318Z,14.03
2023-04-05T03:37:21.083Z,14.00
2023-04-05T03:40:00.564Z,14.03
2023-04-05T03:42:28.790Z,14.09
2023-04-05T03:44:58.187Z,14.16
2023-04-05T03:47:28.224Z,14.22
2023-04-05T03:49:57.220Z,14.27
2023-04-05T03:52:25.805Z,14.32
2023-04-05T03:54:54.461Z,14.35
2023-04-05T03:57:23.865Z,14.38
2023-04-05T03:59:54.908Z,14.41
2023-04-05T04:02:25.228Z,14.42
2023-04-05T04:04:54.133Z,14.41
2023-04-05T04:07:22.497Z,14.38
2023-04-05T04:09:50.871Z,14.33
2023-04-05T04:12:19.149Z,14.22
2023-04-05T04:14:58.081Z,14.08
2023-04-05T04:17:58.920Z,13.97
2023-04-05T04:20:38.872Z,13.85
2023-04-05T04:23:18.914Z,13.73
2023-04-05T04:26:17.092Z,13.61
2023-04-05T04:29:01.849Z,13.54
2023-04-05T04:31:46.260Z,13.48
2023-04-05T04:34:34.961Z,13.40
2023-04-05T04:37:33.899Z,13.34
2023-04-05T04:40:41.882Z,13.29
2023-04-05T04:43:50.585Z,13.21
2023-04-05T04:46:30.817Z,13.15
2023-04-05T04:49:21.731Z,13.08
2023-04-05T04:51:51.618Z,13.03
2023-04-05T04:54:22.547Z,12.97
2023-04-05T04:56:50.945Z,12.93
2023-04-05T04:59:19.229Z,12.88
2023-04-05T05:01:47.691Z,12.85
2023-04-05T05:04:16.329Z,12.83
2023-04-05T05:06:44.581Z,12.83
2023-04-05T05:09:12.630Z,12.84
2023-04-05T05:12:01.901Z,12.85
2023-04-05T05:14:30.373Z,12.84
2023-04-05T05:17:01.336Z,12.84
2023-04-05T05:19:31.818Z,12.84
2023-04-05T05:22:00.596Z,12.84
2023-04-05T05:24:29.026Z,12.80
2023-04-05T05:26:57.257Z,12.76
2023-04-05T05:29:25.816Z,12.72
2023-04-05T05:31:53.884Z,12.69
2023-04-05T05:34:22.862Z,12.66
2023-04-05T05:37:01.925Z,12.65
2023-04-05T05:39:30.212Z,12.66
2023-04-05T05:41:58.464Z,12.65
2023-04-05T05:44:26.675Z,12.64
2023-04-05T05:46:56.894Z,12.59
2023-04-05T05:49:26.129Z,12.52
2023-04-05T05:51:59.087Z,12.44
2023-04-05T05:54:27.497Z,12.39
2023-04-05T05:56:55.735Z,12.35
2023-04-05T05:59:24.366Z,12.34
2023-04-05T06:01:52.784Z,12.36
2023-04-05T06:04:21.157Z,12.34
2023-04-05T06:06:49.480Z,12.31
2023-04-05T06:09:19.508Z,12.31
2023-04-05T06:11:55.626Z,12.31
2023-04-05T06:14:25.721Z,12.25
2023-04-05T06:16:57.907Z,12.20
2023-04-05T06:19:26.508Z,12.15
2023-04-05T06:21:55.306Z,12.11
2023-04-05T06:24:23.511Z,12.08
2023-04-05T06:26:52.297Z,12.05
2023-04-05T06:29:20.644Z,12.00
2023-04-05T06:31:49.026Z,11.94
2023-04-05T06:34:17.270Z,11.90
2023-04-05T06:36:47.687Z,11.88
2023-04-05T06:39:16.818Z,11.85
2023-04-05T06:41:45.068Z,11.82
2023-04-05T06:44:13.256Z,11.79
2023-04-05T06:46:41.345Z,11.78
2023-04-05T06:49:09.963Z,11.77
2023-04-05T06:51:38.716Z,11.75
2023-04-05T06:54:08.467Z,11.72
2023-04-05T06:56:38.001Z,11.70
2023-04-05T06:59:06.435Z,11.70
2023-04-05T07:01:37.199Z,11.70
2023-04-05T07:04:06.837Z,11.71
2023-04-05T07:06:39.154Z,11.68
2023-04-05T07:09:08.538Z,11.66
2023-04-05T07:11:36.749Z,11.66
2023-04-05T07:14:04.850Z,11.66
2023-04-05T07:16:35.836Z,11.67
2023-04-05T07:19:06.350Z,11.67
2023-04-05T07:21:34.927Z,11.67
2023-04-05T07:24:06.598Z,11.66
2023-04-05T07:26:36.163Z,11.65
2023-04-05T07:29:04.810Z,11.65
2023-04-05T07:31:36.982Z,11.68
2023-04-05T07:34:05.776Z,11.69
2023-04-05T07:36:35.915Z,11.69
2023-04-05T07:39:05.717Z,11.67
2023-04-05T07:41:35.664Z,11.64
2023-04-05T07:44:05.629Z,11.61
2023-04-05T07:46:35.253Z,11.59
2023-04-05T07:49:03.737Z,11.58
2023-04-05T07:51:35.444Z,11.57
2023-04-05T07:54:03.894Z,11.58
2023-04-05T07:56:34.062Z,11.58
2023-04-05T07:59:02.256Z,11.57
2023-04-05T08:01:31.453Z,11.57
2023-04-05T08:03:59.822Z,11.59
2023-04-05T08:06:28.011Z,11.59
2023-04-05T08:08:56.341Z,11.57
2023-04-05T08:11:26.691Z,11.54
2023-04-05T08:13:56.021Z,11.52
2023-04-05T08:16:24.221Z,11.51
2023-04-05T08:18:54.423Z,11.51
2023-04-05T08:21:22.866Z,11.49
2023-04-05T08:23:53.043Z,11.47
2023-04-05T08:26:21.257Z,11.45
2023-04-05T08:28:49.369Z,11.42
2023-04-05T08:31:17.724Z,11.42
2023-04-05T08:33:46.752Z,11.44
2023-04-05T08:36:15.717Z,11.43
2023-04-05T08:38:43.950Z,11.40
2023-04-05T08:41:18.781Z,11.39
2023-04-05T08:43:47.640Z,11.37
2023-04-05T08:46:16.678Z,11.36
2023-04-05T08:48:46.232Z,11.35
2023-04-05T08:51:18.260Z,11.34
2023-04-05T08:53:46.856Z,11.32
2023-04-05T08:56:22.404Z,11.30
2023-04-05T08:59:07.478Z,11.28
2023-04-05T09:01:39.841Z,11.25
2023-04-05T09:04:18.510Z,11.22
2023-04-05T09:06:47.581Z,11.20
2023-04-05T09:09:15.904Z,11.18
2023-04-05T09:11:44.828Z,11.16
2023-04-05T09:14:13.027Z,11.17
2023-04-05T09:16:46.485Z,11.19
2023-04-05T09:19:15.885Z,11.20
2023-04-05T09:22:00.235Z,11.19
2023-04-05T09:24:33.371Z,11.20
2023-04-05T09:27:05.481Z,11.23
2023-04-05T09:29:33.964Z,11.26
2023-04-05T09:32:04.303Z,11.30
2023-04-05T09:34:33.330Z,11.32
2023-04-05T09:37:03.525Z,11.34
2023-04-05T09:39:32.871Z,11.36
2023-04-05T09:42:06.557Z,11.37
2023-04-05T09:44:54.522Z,11.36
2023-04-05T09:47:31.277Z,11.33
2023-04-05T09:50:06.305Z,11.29
2023-04-05T09:52:35.371Z,11.25
2023-04-05T09:55:04.341Z,11.24
2023-04-05T09:57:35.719Z,11.23
2023-04-05T10:00:06.152Z,11.21
2023-04-05T10:02:44.857Z,11.22
2023-04-05T10:05:16.236Z,11.19
2023-04-05T10:07:45.384Z,11.16
2023-04-05T10:10:13.577Z,11.17
2023-04-05T10:12:41.995Z,11.12
2023-04-05T10:15:11.437Z,11.07
2023-04-05T10:17:49.856Z,10.99
2023-04-05T10:20:22.046Z,10.92
2023-04-05T10:22:51.767Z,10.89
2023-04-05T10:25:27.710Z,10.86
2023-04-05T10:28:06.144Z,10.85
2023-04-05T10:30:40.509Z,10.88
2023-04-05T10:33:18.431Z,10.93
2023-04-05T10:35:53.078Z,10.95
2023-04-05T10:38:28.042Z,10.95
2023-04-05T10:41:13.222Z,10.95
2023-04-05T10:43:41.478Z,10.93
2023-04-05T10:46:11.151Z,10.92
2023-04-05T10:48:48.440Z,10.89
2023-04-05T10:51:18.109Z,10.86
2023-04-05T10:53:48.040Z,10.87
2023-04-05T10:56:19.949Z,10.91
2023-04-05T10:58:48.675Z,10.92
2023-04-05T11:01:17.801Z,10.91
2023-04-05T11:03:49.672Z,10.93
2023-04-05T11:06:36.018Z,10.95
2023-04-05T11:09:20.747Z,10.97
2023-04-05T11:11:50.079Z,10.97
2023-04-05T11:14:21.531Z,10.96
2023-04-05T11:16:53.560Z,10.98
2023-04-05T11:19:41.803Z,10.97
2023-04-05T11:22:10.249Z,10.91
2023-04-05T11:24:55.312Z,10.86
2023-04-05T11:27:28.395Z,10.81
2023-04-05T11:29:57.812Z,10.74
2023-04-05T11:32:43.167Z,10.71
2023-04-05T11:35:15.253Z,10.67
2023-04-05T11:37:56.072Z,10.63
2023-04-05T11:40:27.781Z,10.58
2023-04-05T11:43:02.573Z,10.52
2023-04-05T11:45:32.358Z,10.46
2023-04-05T11:48:01.782Z,10.42
2023-04-05T11:50:30.151Z,10.38
2023-04-05T11:53:17.597Z,10.35
2023-04-05T11:55:50.641Z,10.30
2023-04-05T11:58:21.676Z,10.25
2023-04-05T12:01:02.504Z,10.22
2023-04-05T12:03:35.172Z,10.19
2023-04-05T12:06:04.287Z,10.16
2023-04-05T12:08:40.166Z,10.14
2023-04-05T12:11:09.383Z,10.12
2023-04-05T12:13:38.658Z,10.09
2023-04-05T12:16:07.502Z,10.08
2023-04-05T12:18:36.706Z,10.07
2023-04-05T12:21:11.018Z,10.06
2023-04-05T12:23:39.047Z,10.08
2023-04-05T12:26:08.139Z,10.10
2023-04-05T12:28:54.651Z,10.09
2023-04-05T12:31:55.324Z,10.05
2023-04-05T12:34:23.926Z,9.98
2023-04-05T12:36:54.032Z,9.96
2023-04-05T12:39:22.476Z,9.95
2023-04-05T12:41:56.979Z,9.91
2023-04-05T12:44:28.348Z,9.85
2023-04-05T12:47:10.558Z,9.79
2023-04-05T12:49:39.425Z,9.74
2023-04-05T12:52:07.915Z,9.71
2023-04-05T12:54:36.709Z,9.62
2023-04-05T12:57:08.921Z,9.55
2023-04-05T12:59:38.670Z,9.54
2023-04-05T13:02:06.843Z,9.52
2023-04-05T13:04:35.027Z,9.48
2023-04-05T13:07:04.616Z,9.44
2023-04-05T13:09:32.996Z,9.57
2023-04-05T13:12:01.478Z,9.60
2023-04-05T13:14:29.814Z,9.70
2023-04-05T13:16:58.086Z,9.71
2023-04-05T13:19:26.192Z,9.73
2023-04-05T13:21:54.317Z,9.70
2023-04-05T13:24:22.452Z,9.69
2023-04-05T13:26:50.811Z,9.68
2023-04-05T13:29:19.273Z,9.49
2023-04-05T13:31:47.448Z,9.38
2023-04-05T13:34:15.738Z,9.33
2023-04-05T13:36:43.862Z,9.31
2023-04-05T13:39:13.100Z,9.30
2023-04-05T13:41:42.068Z,9.27
2023-04-05T13:44:10.154Z,9.24
2023-04-05T13:46:38.588Z,9.22
2023-04-05T13:49:06.732Z,9.19
2023-04-05T13:51:36.974Z,9.15
2023-04-05T13:54:05.791Z,9.13
2023-04-05T13:56:34.796Z,9.20
2023-04-05T13:59:03.129Z,9.34
2023-04-05T14:01:31.458Z,9.38
2023-04-05T14:04:00.523Z,9.39
2023-04-05T14:06:28.683Z,9.38
2023-04-05T14:08:56.869Z,9.35
2023-04-05T14:11:26.591Z,9.32
2023-04-05T14:13:55.044Z,9.30
2023-04-05T14:16:23.176Z,9.29
2023-04-05T14:18:57.550Z,9.27
2023-04-05T14:21:26.473Z,9.27
2023-04-05T14:23:58.015Z,9.28
2023-04-05T14:26:26.369Z,9.29
2023-04-05T14:28:54.569Z,9.32
2023-04-05T14:31:26.380Z,9.35
2023-04-05T14:33:55.530Z,9.37
2023-04-05T14:36:23.629Z,9.40
2023-04-05T14:38:56.557Z,9.38
2023-04-05T14:41:25.188Z,9.38
2023-04-05T14:43:53.684Z,9.39
2023-04-05T14:46:21.936Z,9.38
2023-04-05T14:48:50.186Z,9.38
2023-04-05T14:51:18.358Z,9.36
2023-04-05T14:53:46.596Z,9.35
2023-04-05T14:56:16.154Z,9.35
2023-04-05T14:58:44.503Z,9.35
2023-04-05T15:01:12.952Z,9.32
2023-04-05T15:03:42.935Z,9.30
2023-04-05T15:06:11.110Z,9.27
2023-04-05T15:08:39.358Z,9.25
2023-04-05T15:11:11.583Z,9.21
2023-04-05T15:13:39.705Z,9.20
2023-04-05T15:16:07.853Z,9.19
2023-04-05T15:18:37.077Z,9.23
2023-04-05T15:21:05.659Z,9.26
2023-04-05T15:23:39.614Z,9.30
2023-04-05T15:26:07.738Z,9.30
2023-04-05T15:28:35.893Z,9.30
2023-04-05T15:31:04.089Z,9.33
2023-04-05T15:33:32.406Z,9.38
2023-04-05T15:36:00.788Z,9.42
2023-04-05T15:38:29.645Z,9.43
2023-04-05T15:40:58.097Z,9.44
2023-04-05T15:43:26.742Z,9.45
2023-04-05T15:45:55.019Z,9.46
2023-04-05T15:48:23.178Z,9.46
2023-04-05T15:50:51.447Z,9.43
2023-04-05T15:53:19.618Z,9.43
2023-04-05T15:55:47.821Z,9.42
2023-04-05T15:58:16.102Z,9.40
2023-04-05T16:00:45.988Z,9.36
2023-04-05T16:03:14.876Z,9.34
2023-04-05T16:05:43.264Z,9.33
2023-04-05T16:08:13.377Z,9.30
2023-04-05T16:10:42.785Z,9.28
2023-04-05T16:13:11.833Z,9.28
2023-04-05T16:15:41.025Z,9.26
2023-04-05T16:18:10.180Z,9.24
2023-04-05T16:20:38.671Z,9.24
2023-04-05T16:23:08.322Z,9.24
2023-04-05T16:25:36.521Z,9.22
2023-04-05T16:28:06.691Z,9.16
2023-04-05T16:30:35.982Z,9.11
2023-04-05T16:33:04.181Z,9.09
2023-04-05T16:35:32.501Z,9.08
2023-04-05T16:38:00.937Z,9.07
2023-04-05T16:40:29.233Z,9.07
2023-04-05T16:42:57.355Z,9.09
2023-04-05T16:45:26.757Z,9.08
2023-04-05T16:47:54.926Z,9.04
2023-04-05T16:50:23.282Z,8.97
2023-04-05T16:52:51.513Z,8.95
2023-04-05T16:55:19.958Z,8.95
2023-04-05T16:57:49.795Z,8.96
2023-04-05T17:00:19.147Z,8.96
2023-04-05T17:03:07.164Z,8.97
2023-04-05T17:05:36.417Z,9.00
2023-04-05T17:08:04.895Z,9.01
2023-04-05T17:10:33.020Z,8.99
2023-04-05T17:13:01.174Z,8.99
2023-04-05T17:15:29.464Z,8.97
2023-04-05T17:17:57.946Z,8.94
2023-04-05T17:20:26.608Z,8.96
2023-04-05T17:22:54.937Z,8.98
2023-04-05T17:25:23.093Z,8.98
2023-04-05T17:27:51.441Z,8.97
2023-04-05T17:30:19.636Z,8.94
2023-04-05T17:32:52.581Z,8.89
2023-04-05T17:35:20.882Z,8.86
2023-04-05T17:37:49.833Z,8.85
2023-04-05T17:40:18.849Z,8.92
2023-04-05T17:42:48.361Z,8.97
2023-04-05T17:45:16.912Z,8.98
2023-04-05T17:47:46.531Z,9.01
2023-04-05T17:50:14.724Z,9.05
2023-04-05T17:52:44.480Z,9.13
2023-04-05T17:55:12.628Z,9.20
2023-04-05T17:57:41.615Z,9.22
2023-04-05T18:00:10.072Z,9.22
2023-04-05T18:02:40.934Z,9.21
2023-04-05T18:05:10.402Z,9.20
2023-04-05T18:07:38.543Z,9.17
2023-04-05T18:10:07.492Z,9.20
2023-04-05T18:12:36.204Z,9.21
2023-04-05T18:15:04.524Z,9.21
2023-04-05T18:17:34.233Z,9.23
2023-04-05T18:20:02.766Z,9.26
2023-04-05T18:22:37.839Z,9.27
2023-04-05T18:25:08.740Z,9.29
2023-04-05T18:27:37.404Z,9.31
2023-04-05T18:30:05.978Z,9.34
2023-04-05T18:32:34.968Z,9.39
2023-04-05T18:35:03.210Z,9.44
2023-04-05T18:37:31.934Z,9.47
2023-04-05T18:40:00.011Z,9.51
2023-04-05T18:42:32.976Z,9.54
2023-04-05T18:45:01.578Z,9.56
2023-04-05T18:47:29.927Z,9.59
2023-04-05T18:49:58.195Z,9.61
2023-04-05T18:52:33.434Z,9.63
2023-04-05T18:55:03.573Z,9.64
2023-04-05T18:57:31.746Z,9.65
2023-04-05T19:00:00.737Z,9.67
2023-04-05T19:02:31.151Z,9.68
2023-04-05T19:04:59.408Z,9.69
2023-04-05T19:07:27.637Z,9.71
2023-04-05T19:09:56.359Z,9.71
2023-04-05T19:12:24.525Z,9.70
2023-04-05T19:14:55.414Z,9.73
2023-04-05T19:17:24.048Z,9.74
2023-04-05T19:19:52.283Z,9.74
2023-04-05T19:22:20.409Z,9.74
2023-04-05T19:24:48.532Z,9.73
2023-04-05T19:27:16.732Z,9.73
2023-04-05T19:29:45.386Z,9.72
2023-04-05T19:32:14.046Z,9.71
2023-04-05T19:34:42.166Z,9.71
2023-04-05T19:37:10.516Z,9.70
2023-04-05T19:39:38.627Z,9.70
2023-04-05T19:42:08.055Z,9.70
2023-04-05T19:44:50.819Z,9.70
2023-04-05T19:47:20.460Z,9.70
2023-04-05T19:49:49.415Z,9.71
2023-04-05T19:52:41.011Z,9.71
2023-04-05T19:55:29.800Z,9.70
2023-04-05T19:57:58.591Z,9.70
2023-04-05T20:00:33.305Z,9.70
2023-04-05T20:03:01.929Z,9.70
2023-04-05T20:05:47.587Z,9.69
2023-04-05T20:08:17.381Z,9.69
2023-04-05T20:10:47.925Z,9.69
2023-04-05T20:13:19.957Z,9.70
2023-04-05T20:15:52.802Z,9.69
2023-04-05T20:18:24.738Z,9.68
2023-04-05T20:20:53.704Z,9.67
2023-04-05T20:23:23.053Z,9.65
2023-04-05T20:25:52.290Z,9.62
2023-04-05T20:28:30.299Z,9.61
2023-04-05T20:30:58.554Z,9.60
2023-04-05T20:33:44.973Z,9.60
2023-04-05T20:36:13.671Z,9.60
2023-04-05T20:38:43.299Z,9.60
2023-04-05T20:41:12.288Z,9.59
2023-04-05T20:43:40.638Z,9.58
2023-04-05T20:46:08.830Z,9.57
2023-04-05T20:48:37.293Z,9.55
2023-04-05T20:51:07.763Z,9.53
2023-04-05T20:53:36.717Z,9.53
2023-04-05T20:56:06.011Z,9.51
2023-04-05T20:58:34.864Z,9.47
2023-04-05T21:01:03.506Z,9.44
2023-04-05T21:03:39.379Z,9.43
2023-04-05T21:06:08.499Z,9.39
2023-04-05T21:08:37.150Z,9.35
2023-04-05T21:11:06.897Z,9.30
2023-04-05T21:13:37.135Z,9.20
2023-04-05T21:16:05.780Z,9.10
2023-04-05T21:18:35.153Z,9.21
2023-04-05T21:21:03.470Z,9.22
2023-04-05T21:23:34.238Z,9.22
2023-04-05T21:26:04.544Z,9.22
2023-04-05T21:28:33.391Z,9.21
2023-04-05T21:31:02.784Z,9.21
2023-04-05T21:33:31.381Z,9.19
2023-04-05T21:35:59.728Z,9.19
2023-04-05T21:38:27.896Z,9.19
2023-04-05T21:40:56.208Z,9.20
2023-04-05T21:43:25.994Z,9.20
2023-04-05T21:45:54.195Z,9.19
2023-04-05T21:48:24.827Z,9.19
2023-04-05T21:50:53.364Z,9.19
2023-04-05T21:53:25.544Z,9.20
2023-04-05T21:55:56.504Z,9.21
2023-04-05T21:58:26.603Z,9.22
2023-04-05T22:00:55.012Z,9.24
2023-04-05T22:03:23.609Z,9.25
2023-04-05T22:05:52.257Z,9.26
2023-04-05T22:08:21.148Z,9.27
2023-04-05T22:10:49.618Z,9.28
2023-04-05T22:13:19.553Z,9.28
2023-04-05T22:15:47.735Z,9.27
2023-04-05T22:18:16.151Z,9.27
2023-04-05T22:20:44.327Z,9.29
2023-04-05T22:23:12.569Z,9.30
2023-04-05T22:25:42.140Z,9.30
2023-04-05T22:28:10.833Z,9.31
2023-04-05T22:33:10.575Z,9.32
2023-04-05T22:35:39.109Z,9.31
2023-04-05T22:38:07.349Z,9.28
2023-04-05T22:40:35.731Z,9.26
2023-04-05T22:43:04.184Z,9.25
2023-04-05T22:45:32.910Z,9.23
2023-04-05T22:48:01.503Z,9.23
2023-04-05T22:50:29.748Z,9.22
2023-04-05T22:52:58.231Z,9.21
2023-04-05T22:55:26.633Z,9.20
2023-04-05T22:57:54.775Z,9.19
2023-04-05T23:00:23.259Z,9.19
2023-04-05T23:02:51.960Z,9.17
2023-04-05T23:05:20.189Z,9.17
2023-04-05T23:07:48.483Z,9.14
2023-04-05T23:10:17.474Z,9.13
2023-04-05T23:12:46.741Z,9.11
2023-04-05T23:15:14.954Z,9.08
2023-04-05T23:17:43.608Z,9.04
2023-04-05T23:20:12.349Z,9.02
2023-04-05T23:22:40.548Z,9.00
2023-04-05T23:25:09.250Z,8.99
2023-04-05T23:27:37.434Z,8.97
2023-04-05T23:30:07.080Z,8.98
2023-04-05T23:32:36.292Z,8.97
2023-04-05T23:35:04.600Z,8.95
2023-04-05T23:37:33.575Z,8.93
2023-04-05T23:40:01.808Z,8.90
2023-04-05T23:42:30.883Z,8.89
2023-04-05T23:45:02.099Z,8.88
2023-04-05T23:47:30.655Z,8.85
2023-04-05T23:49:59.405Z,8.83
2023-04-05T23:52:27.585Z,8.82
2023-04-05T23:54:56.228Z,8.81
2023-04-05T23:57:25.135Z,8.82
2023-04-05T23:59:53.227Z,8.82
